Time;durP1;ratioP1;P1;durP2;ratioP2;P2;SDS_P1;SDS_P2;PMS_P1;PMS_P2;Temp;Humidity;BMP_temperature;BMP_pressure;BME280_temperature;BME280_humidity;BME280_pressure;Samples;Min_cycle;Max_cycle;Signal;HPM_P1;HPM_P2
2023/03/07 00:00:44;;;;;;;16.83;10.20;;;;;;;0.80;100.00;95055.63;5066073;28;20525;-85
2023/03/07 00:03:15;;;;;;;21.10;11.47;;;;;;;0.78;100.00;95053.19;5049246;28;20968;-84
2023/03/07 00:05:41;;;;;;;18.50;10.37;;;;;;;0.69;100.00;95048.75;5047816;28;20546;-85
2023/03/07 00:08:18;;;;;;;19.30;11.40;;;;;;;0.75;100.00;95050.03;5034913;28;20458;-85
2023/03/07 00:10:44;;;;;;;18.97;10.27;;;;;;;0.73;100.00;95044.16;5055729;28;20486;-84
2023/03/07 00:13:19;;;;;;;17.67;10.73;;;;;;;0.74;100.00;95040.59;5055287;28;20525;-84
2023/03/07 00:16:18;;;;;;;;;;;;;;;0.71;100.00;95039.13;5053806;28;20460;-85
2023/03/07 00:18:49;;;;;;;12.73;8.13;;;;;;;0.70;100.00;95040.88;5055105;28;19920;-86
2023/03/07 00:21:21;;;;;;;16.97;10.07;;;;;;;0.72;100.00;95040.75;5079187;28;20043;-85
2023/03/07 00:23:50;;;;;;;21.63;11.10;;;;;;;0.70;100.00;95042.63;5052425;28;20478;-84
2023/03/07 00:26:21;;;;;;;20.87;10.40;;;;;;;0.68;100.00;95042.78;5043959;28;20482;-85
2023/03/07 00:28:56;;;;;;;18.57;10.10;;;;;;;0.73;100.00;95049.31;5053430;28;20475;-85
2023/03/07 00:31:31;;;;;;;17.90;10.27;;;;;;;0.72;100.00;95045.91;5059664;28;20551;-85
2023/03/07 00:33:57;;;;;;;18.67;11.37;;;;;;;0.70;100.00;95043.47;5053216;28;20474;-85
2023/03/07 00:36:23;;;;;;;18.40;10.63;;;;;;;0.68;100.00;95036.78;5067412;28;20551;-85
2023/03/07 00:38:59;;;;;;;19.30;10.50;;;;;;;0.77;100.00;95032.59;5071060;28;20033;-85
2023/03/07 00:41:32;;;;;;;19.33;10.93;;;;;;;0.72;100.00;95035.56;5087175;28;20035;-85
2023/03/07 00:43:59;;;;;;;18.85;10.57;;;;;;;0.63;100.00;95031.16;5068274;28;20992;-85
2023/03/07 00:46:26;;;;;;;18.17;9.97;;;;;;;0.64;100.00;95032.81;5053690;28;20297;-85
2023/03/07 00:48:53;;;;;;;17.87;9.80;;;;;;;0.65;100.00;95030.09;5037243;28;20479;-85
2023/03/07 00:51:23;;;;;;;20.43;10.03;;;;;;;0.66;100.00;95029.13;5056609;28;20471;-85
2023/03/07 00:53:50;;;;;;;16.40;9.10;;;;;;;0.64;100.00;95025.06;5041502;28;20463;-85
2023/03/07 00:56:28;;;;;;;18.53;9.80;;;;;;;0.66;100.00;95017.97;5076825;28;20505;-85
2023/03/07 00:59:00;;;;;;;18.50;9.93;;;;;;;0.66;100.00;95012.78;5064460;28;20464;-84
2023/03/07 01:01:27;;;;;;;18.60;9.33;;;;;;;0.73;100.00;95005.34;5060901;28;21040;-85
2023/03/07 01:03:53;;;;;;;23.57;11.03;;;;;;;0.60;100.00;95003.78;5053508;28;20470;-84
2023/03/07 01:06:23;;;;;;;16.53;9.20;;;;;;;0.59;100.00;95007.31;5071554;28;20028;-85
2023/03/07 01:08:53;;;;;;;15.00;8.52;;;;;;;0.60;100.00;95005.53;5049913;28;20145;-86
2023/03/07 01:11:18;;;;;;;17.50;10.00;;;;;;;0.59;100.00;95006.50;5037727;28;20089;-85
2023/03/07 01:13:45;;;;;;;19.67;9.17;;;;;;;0.59;100.00;95002.13;5075219;28;20455;-85
2023/03/07 01:16:13;;;;;;;16.60;10.60;;;;;;;0.57;100.00;94992.84;5035854;28;20521;-85
2023/03/07 01:18:40;;;;;;;16.73;10.13;;;;;;;0.56;100.00;94992.03;5083200;28;20455;-85
2023/03/07 01:21:29;;;;;;;18.37;10.47;;;;;;;0.56;100.00;94993.81;5044397;28;20467;-85
2023/03/07 01:23:57;;;;;;;28.77;10.67;;;;;;;0.58;100.00;94985.00;5049469;28;20524;-85
2023/03/07 01:26:29;;;;;;;16.60;9.60;;;;;;;0.61;100.00;94989.91;5050708;28;20452;-85
2023/03/07 01:28:57;;;;;;;16.80;9.03;;;;;;;0.55;100.00;94974.91;5033743;28;20471;-84
2023/03/07 01:31:24;;;;;;;20.50;11.60;;;;;;;0.54;100.00;94972.41;5035328;28;20463;-85
2023/03/07 01:33:52;;;;;;;18.10;9.97;;;;;;;0.55;100.00;94977.47;5051724;28;20876;-84
2023/03/07 01:36:28;;;;;;;17.77;8.90;;;;;;;0.52;100.00;94972.56;5052154;28;20444;-85
2023/03/07 01:39:02;;;;;;;18.07;9.83;;;;;;;0.61;100.00;94968.41;5054099;28;21081;-84
2023/03/07 01:41:31;;;;;;;20.90;11.03;;;;;;;0.57;100.00;94967.84;5051889;28;20463;-85
2023/03/07 01:44:04;;;;;;;17.53;9.30;;;;;;;0.57;100.00;94970.44;5051079;28;20483;-85
2023/03/07 01:46:47;;;;;;;16.80;9.67;;;;;;;0.53;100.00;94971.59;5068268;28;20562;-85
2023/03/07 01:49:32;;;;;;;16.40;8.77;;;;;;;0.55;100.00;94963.72;5072073;28;20475;-84
2023/03/07 01:52:46;;;;;;;17.67;9.83;;;;;;;0.52;100.00;94966.56;5068445;28;20470;-85
2023/03/07 01:55:18;;;;;;;18.37;9.67;;;;;;;0.58;100.00;94959.13;5030837;28;20479;-84
2023/03/07 01:57:49;;;;;;;18.00;10.30;;;;;;;0.57;100.00;94956.66;5073637;28;20463;-85
2023/03/07 02:00:25;;;;;;;19.27;9.87;;;;;;;0.60;100.00;94957.19;5065881;28;20474;-85
2023/03/07 02:03:01;;;;;;;17.43;9.30;;;;;;;0.53;100.00;94958.66;5047205;28;20452;-85
2023/03/07 02:05:33;;;;;;;16.90;9.50;;;;;;;0.54;100.00;94956.91;5034130;28;20479;-86
2023/03/07 02:08:01;;;;;;;17.40;9.87;;;;;;;0.55;100.00;94954.19;5066401;28;20530;-85
2023/03/07 02:10:31;;;;;;;18.63;9.80;;;;;;;0.62;100.00;94947.56;5038670;28;20481;-85
2023/03/07 02:12:57;;;;;;;18.10;9.63;;;;;;;0.59;100.00;94953.00;5040800;28;21114;-85
2023/03/07 02:15:27;;;;;;;17.27;9.20;;;;;;;0.63;100.00;94945.78;5066359;28;20559;-86
2023/03/07 02:17:56;;;;;;;14.83;8.57;;;;;;;0.65;100.00;94944.72;5042049;28;20096;-86
2023/03/07 02:20:58;;;;;;;16.43;9.20;;;;;;;0.64;100.00;94947.44;5084952;28;20452;-85
2023/03/07 02:23:42;;;;;;;15.97;8.93;;;;;;;0.65;100.00;94939.53;5020633;28;20456;-85
2023/03/07 02:26:38;;;;;;;19.40;9.55;;;;;;;0.61;100.00;94934.75;5066857;28;20468;-85
2023/03/07 02:29:04;;;;;;;17.40;8.37;;;;;;;0.62;100.00;94924.28;5085071;28;20033;-85
2023/03/07 02:31:31;;;;;;;17.27;9.07;;;;;;;0.68;100.00;94931.53;5066607;28;20474;-85
2023/03/07 02:33:56;;;;;;;16.60;9.13;;;;;;;0.62;100.00;94926.03;5051024;28;20471;-84
2023/03/07 02:36:27;;;;;;;18.10;10.00;;;;;;;0.64;100.00;94924.16;5051603;28;20041;-86
2023/03/07 02:39:08;;;;;;;16.37;9.67;;;;;;;0.60;100.00;94920.97;5057963;28;20488;-85
2023/03/07 02:41:38;;;;;;;16.63;9.50;;;;;;;0.60;100.00;94928.75;5075389;28;20472;-85
2023/03/07 02:44:11;;;;;;;15.03;8.80;;;;;;;0.58;100.00;94922.09;5065529;28;20518;-85
2023/03/07 02:46:37;;;;;;;14.70;8.73;;;;;;;0.56;100.00;94935.13;5051781;28;20467;-85
2023/03/07 02:49:03;;;;;;;16.83;9.40;;;;;;;0.59;100.00;94923.72;5043445;28;20456;-85
2023/03/07 02:51:31;;;;;;;18.83;10.20;;;;;;;0.51;100.00;94926.97;5068848;28;20040;-86
2023/03/07 02:53:58;;;;;;;16.33;9.53;;;;;;;0.60;100.00;94918.41;5053347;28;20460;-85
2023/03/07 02:56:23;;;;;;;16.17;9.03;;;;;;;0.59;100.00;94927.13;5066537;28;20475;-84
2023/03/07 02:58:50;;;;;;;16.73;9.70;;;;;;;0.56;100.00;94935.13;5067483;28;20482;-85
2023/03/07 03:01:16;;;;;;;19.47;9.50;;;;;;;0.54;100.00;94924.13;5055777;28;20454;-85
2023/03/07 03:03:43;;;;;;;16.47;8.53;;;;;;;0.62;100.00;94928.63;5051569;28;20565;-85
2023/03/07 03:06:09;;;;;;;14.30;8.63;;;;;;;0.61;100.00;94927.00;5052193;28;20482;-85
2023/03/07 03:08:34;;;;;;;16.90;9.37;;;;;;;0.63;100.00;94925.09;5052512;28;20892;-85
2023/03/07 03:11:01;;;;;;;15.67;8.50;;;;;;;0.57;100.00;94925.59;5052993;28;20103;-85
2023/03/07 03:13:28;;;;;;;18.40;9.60;;;;;;;0.60;100.00;94926.16;5072812;28;20049;-85
2023/03/07 03:16:00;;;;;;;17.73;10.43;;;;;;;0.56;100.00;94919.63;5054531;28;20563;-84
2023/03/07 03:18:29;;;;;;;17.07;8.97;;;;;;;0.64;100.00;94922.38;5051390;28;20033;-85
2023/03/07 03:20:57;;;;;;;16.33;9.37;;;;;;;0.58;100.00;94922.91;5069437;28;20825;-84
2023/03/07 03:23:33;;;;;;;18.27;10.47;;;;;;;0.61;100.00;94922.66;5052399;28;20459;-85
2023/03/07 03:26:04;;;;;;;17.77;9.73;;;;;;;0.66;100.00;94920.47;5046430;28;20086;-85
2023/03/07 03:28:31;;;;;;;17.17;9.43;;;;;;;0.59;100.00;94923.72;5052145;28;21028;-84
2023/03/07 03:31:02;;;;;;;17.67;9.57;;;;;;;0.64;100.00;94917.22;5068152;28;20529;-85
2023/03/07 03:33:30;;;;;;;15.88;9.43;;;;;;;0.60;100.00;94909.81;5051194;28;20086;-85
2023/03/07 03:35:58;;;;;;;18.57;9.93;;;;;;;0.50;100.00;94907.19;5068906;28;20040;-85
2023/03/07 03:38:25;;;;;;;19.47;10.90;;;;;;;0.51;100.00;94913.22;5065120;28;20458;-85
2023/03/07 03:41:16;;;;;;;19.03;10.47;;;;;;;0.46;100.00;94918.75;5054430;28;21020;-85
2023/03/07 03:43:43;;;;;;;17.90;10.07;;;;;;;0.45;100.00;94923.13;5051996;28;20502;-84
2023/03/07 03:46:09;;;;;;;16.87;9.27;;;;;;;0.38;100.00;94921.19;5046685;28;20503;-85
2023/03/07 03:48:36;;;;;;;17.67;9.10;;;;;;;0.38;100.00;94914.25;5052275;28;20065;-86
2023/03/07 03:51:07;;;;;;;18.63;9.63;;;;;;;0.40;100.00;94911.50;5052060;28;20479;-86
2023/03/07 03:53:38;;;;;;;19.47;9.90;;;;;;;0.42;100.00;94912.22;5051741;28;20049;-85
2023/03/07 03:56:10;;;;;;;16.23;9.20;;;;;;;0.37;100.00;94912.63;5083585;28;20482;-85
2023/03/07 03:58:37;;;;;;;17.67;10.40;;;;;;;0.38;100.00;94909.06;5049305;28;20543;-85
2023/03/07 04:01:06;;;;;;;17.67;8.80;;;;;;;0.36;100.00;94912.72;5050147;28;21092;-85
2023/03/07 04:03:37;;;;;;;20.87;10.97;;;;;;;0.32;100.00;94919.13;5033257;28;21025;-85
2023/03/07 04:06:09;;;;;;;20.23;11.23;;;;;;;0.42;100.00;94914.81;5038823;28;20455;-85
2023/03/07 04:08:36;;;;;;;22.57;10.60;;;;;;;0.37;100.00;94919.53;5050457;28;20462;-85
2023/03/07 04:11:03;;;;;;;19.03;10.30;;;;;;;0.35;100.00;94918.84;5048361;28;20460;-85
2023/03/07 04:13:32;;;;;;;16.57;9.73;;;;;;;0.35;100.00;94921.44;5049088;28;20494;-85
2023/03/07 04:15:58;;;;;;;19.47;10.17;;;;;;;0.26;100.00;94927.38;5035371;28;20467;-86
2023/03/07 04:18:24;;;;;;;18.37;9.63;;;;;;;0.35;100.00;94921.44;5062504;28;20464;-85
2023/03/07 04:20:51;;;;;;;20.50;11.63;;;;;;;0.30;100.00;94918.41;5062262;28;20055;-85
2023/03/07 04:23:26;;;;;;;18.53;10.47;;;;;;;0.32;100.00;94911.34;5049601;28;20451;-85
2023/03/07 04:25:57;;;;;;;19.10;10.77;;;;;;;0.33;100.00;94915.56;5054540;28;20471;-85
2023/03/07 04:28:25;;;;;;;20.03;11.43;;;;;;;0.35;100.00;94911.09;5062756;28;20452;-85
2023/03/07 04:30:52;;;;;;;18.20;10.13;;;;;;;0.39;100.00;94907.31;5061449;28;20988;-85
2023/03/07 04:33:26;;;;;;;22.00;11.07;;;;;;;0.36;100.00;94902.38;5051503;28;20491;-85
2023/03/07 04:35:52;;;;;;;19.50;11.68;;;;;;;0.40;100.00;94889.09;5055524;28;20544;-85
2023/03/07 04:38:20;;;;;;;20.50;12.03;;;;;;;0.39;100.00;94889.19;5048528;28;20033;-85
2023/03/07 04:40:46;;;;;;;20.03;11.77;;;;;;;0.37;100.00;94881.59;5050339;28;20518;-85
2023/03/07 04:43:15;;;;;;;21.93;12.03;;;;;;;0.46;100.00;94887.72;5066090;28;20025;-85
2023/03/07 04:45:41;;;;;;;20.57;11.83;;;;;;;0.50;100.00;94885.69;5055071;28;20048;-85
2023/03/07 04:48:07;;;;;;;20.93;11.63;;;;;;;0.52;100.00;94881.22;5048991;28;21011;-85
2023/03/07 04:50:35;;;;;;;21.00;11.30;;;;;;;0.53;100.00;94883.66;5050165;28;20033;-85
2023/03/07 04:53:00;;;;;;;16.57;9.50;;;;;;;0.60;100.00;94878.78;5034450;28;20875;-84
2023/03/07 04:55:26;;;;;;;15.43;8.67;;;;;;;0.58;100.00;94880.69;5029607;28;20036;-85
2023/03/07 04:57:56;;;;;;;17.90;9.77;;;;;;;0.69;100.00;94871.06;5036798;28;20502;-85
2023/03/07 05:00:22;;;;;;;18.17;10.10;;;;;;;0.70;100.00;94875.28;5054258;28;20115;-85
2023/03/07 05:02:51;;;;;;;18.70;10.17;;;;;;;0.69;100.00;94873.63;5070929;28;20459;-85
2023/03/07 05:05:18;;;;;;;17.37;9.97;;;;;;;0.74;100.00;94872.41;5051193;28;20478;-85
2023/03/07 05:07:49;;;;;;;21.57;10.43;;;;;;;0.73;100.00;94873.38;5058536;28;20455;-84
2023/03/07 05:10:15;;;;;;;17.83;9.43;;;;;;;0.66;100.00;94863.56;5060839;28;20033;-85
2023/03/07 05:12:41;;;;;;;16.07;9.30;;;;;;;0.82;100.00;94859.66;5065106;28;20464;-85
2023/03/07 05:15:11;;;;;;;16.53;9.73;;;;;;;0.94;100.00;94856.00;5031936;28;20452;-89
2023/03/07 05:17:38;;;;;;;16.60;9.63;;;;;;;0.96;100.00;94859.25;5068793;28;20459;-85
2023/03/07 05:20:53;;;;;;;17.93;10.67;;;;;;;1.00;100.00;94845.09;5049971;28;20460;-85
2023/03/07 05:23:19;;;;;;;16.73;9.47;;;;;;;0.99;100.00;94848.63;5061368;28;20482;-85
2023/03/07 05:25:47;;;;;;;16.70;8.87;;;;;;;1.05;100.00;94837.75;5067298;28;20447;-85
2023/03/07 05:28:15;;;;;;;17.83;9.90;;;;;;;1.09;100.00;94839.09;5036378;28;20465;-86
2023/03/07 05:30:42;;;;;;;18.20;9.63;;;;;;;1.09;100.00;94838.28;5052022;28;20524;-87
2023/03/07 05:33:08;;;;;;;18.00;9.90;;;;;;;1.11;100.00;94839.78;5069401;28;20463;-88
2023/03/07 05:35:34;;;;;;;19.83;10.33;;;;;;;1.13;100.00;94840.47;5078446;28;20440;-87
2023/03/07 05:38:02;;;;;;;19.03;10.03;;;;;;;1.11;100.00;94837.22;5036966;28;20558;-87
2023/03/07 05:40:29;;;;;;;16.47;10.00;;;;;;;1.11;100.00;94837.22;5068047;28;20467;-87
2023/03/07 05:42:55;;;;;;;13.97;8.10;;;;;;;1.15;100.00;94843.75;5055445;28;20488;-87
2023/03/07 05:45:22;;;;;;;16.97;8.90;;;;;;;1.22;100.00;94840.63;5051590;28;20029;-84
2023/03/07 05:47:48;;;;;;;18.60;8.83;;;;;;;1.22;100.00;94840.63;5052041;28;20451;-84
2023/03/07 05:50:14;;;;;;;17.73;9.73;;;;;;;1.23;100.00;94834.47;5051475;28;21035;-85
2023/03/07 05:52:40;;;;;;;15.20;8.83;;;;;;;1.18;100.00;94838.28;5081562;28;20067;-85
2023/03/07 05:55:07;;;;;;;16.50;8.50;;;;;;;1.17;100.00;94838.41;5065885;28;20475;-85
2023/03/07 05:57:33;;;;;;;18.00;9.30;;;;;;;1.12;100.00;94840.59;5062752;28;20056;-84
2023/03/07 06:00:04;;;;;;;21.43;10.07;;;;;;;1.10;100.00;94832.97;5034619;28;20455;-85
2023/03/07 06:02:40;;;;;;;17.00;9.10;;;;;;;1.16;100.00;94832.41;5057844;28;20438;-85
2023/03/07 06:05:10;;;;;;;17.03;9.57;;;;;;;1.17;100.00;94838.41;5052782;28;20542;-84
2023/03/07 06:07:36;;;;;;;15.20;8.80;;;;;;;1.14;100.00;94843.84;5053293;28;20479;-85
2023/03/07 06:10:03;;;;;;;19.47;9.83;;;;;;;1.13;100.00;94842.22;5062635;28;20029;-85
2023/03/07 06:12:32;;;;;;;14.40;8.60;;;;;;;1.12;100.00;94846.59;5053692;28;20113;-85
2023/03/07 06:14:58;;;;;;;18.73;9.30;;;;;;;1.15;100.00;94843.75;5088808;28;20463;-84
2023/03/07 06:17:24;;;;;;;16.87;9.37;;;;;;;1.17;100.00;94847.03;5035230;28;20466;-84
2023/03/07 06:19:50;;;;;;;15.27;7.93;;;;;;;1.14;100.00;94849.03;5034273;28;20021;-84
2023/03/07 06:22:16;;;;;;;14.43;8.47;;;;;;;1.21;100.00;94850.16;5051188;28;20475;-84
2023/03/07 06:24:42;;;;;;;16.90;8.20;;;;;;;1.24;100.00;94846.47;5050708;28;20032;-84
2023/03/07 06:27:09;;;;;;;15.30;9.20;;;;;;;1.20;100.00;94845.09;5067378;28;20030;-85
2023/03/07 06:29:35;;;;;;;14.83;8.57;;;;;;;1.22;100.00;94843.19;5050622;28;20463;-84
2023/03/07 06:32:01;;;;;;;17.30;10.03;;;;;;;1.24;100.00;94836.09;5084432;28;20082;-84
2023/03/07 06:34:27;;;;;;;15.57;8.20;;;;;;;1.25;100.00;94841.16;5050945;28;21678;-84
2023/03/07 06:36:53;;;;;;;14.07;8.00;;;;;;;1.33;100.00;94850.81;5051277;28;20037;-84
2023/03/07 06:39:22;;;;;;;15.47;8.27;;;;;;;1.34;100.00;94836.91;5067231;28;20056;-84
2023/03/07 06:41:51;;;;;;;15.97;8.43;;;;;;;1.36;100.00;94842.78;5067608;28;20486;-84
2023/03/07 06:44:17;;;;;;;19.93;10.40;;;;;;;1.37;100.00;94837.44;5050057;28;20501;-83
2023/03/07 06:46:44;;;;;;;14.63;8.63;;;;;;;1.41;100.00;94832.84;5050198;28;20037;-84
2023/03/07 06:49:13;;;;;;;14.63;8.40;;;;;;;1.40;100.00;94831.19;5050526;28;20475;-84
2023/03/07 06:51:40;;;;;;;16.87;8.50;;;;;;;1.42;100.00;94831.88;5050558;28;20456;-84
2023/03/07 06:54:06;;;;;;;15.17;7.53;;;;;;;1.44;100.00;94829.13;5049894;28;20618;-83
2023/03/07 06:56:34;;;;;;;17.07;9.13;;;;;;;1.43;100.00;94825.72;5084390;28;20487;-84
2023/03/07 06:59:00;;;;;;;17.13;9.00;;;;;;;1.45;100.00;94826.41;5049749;28;20533;-84
2023/03/07 07:01:26;;;;;;;16.93;8.03;;;;;;;1.49;100.00;94827.78;5066641;28;20455;-84
2023/03/07 07:03:53;;;;;;;15.07;8.43;;;;;;;1.50;100.00;94826.81;5049914;28;20498;-84
2023/03/07 07:06:19;;;;;;;16.83;8.93;;;;;;;1.53;100.00;94816.19;5051181;28;20488;-84
2023/03/07 07:08:47;;;;;;;18.47;8.80;;;;;;;1.59;100.00;94831.16;5064116;28;20052;-84
2023/03/07 07:11:16;;;;;;;16.10;8.70;;;;;;;1.54;100.00;94825.59;5049824;28;20976;-85
2023/03/07 07:13:44;;;;;;;16.27;9.07;;;;;;;1.62;100.00;94820.53;5049553;28;20067;-83
2023/03/07 07:16:11;;;;;;;16.80;9.03;;;;;;;1.76;100.00;94818.47;5049083;28;20486;-84
2023/03/07 07:18:38;;;;;;;15.70;8.43;;;;;;;1.77;100.00;94822.66;5050064;28;20452;-84
2023/03/07 07:21:05;;;;;;;15.27;8.63;;;;;;;1.76;100.00;94819.28;5051381;28;20447;-84
2023/03/07 07:23:32;;;;;;;14.60;10.00;;;;;;;1.81;100.00;94824.88;5049623;28;21012;-84
2023/03/07 07:25:58;;;;;;;14.80;8.20;;;;;;;1.95;100.00;94815.00;5049800;28;20459;-84
2023/03/07 07:28:24;;;;;;;16.03;10.07;;;;;;;1.92;100.00;94823.88;5049893;28;20908;-84
2023/03/07 07:30:50;;;;;;;16.60;8.83;;;;;;;1.99;100.00;94817.16;5040767;28;20618;-84
2023/03/07 07:33:16;;;;;;;14.67;8.43;;;;;;;2.02;100.00;94816.88;5083611;28;20064;-85
2023/03/07 07:35:46;;;;;;;17.70;8.63;;;;;;;2.17;100.00;94819.00;5038742;28;20102;-84
2023/03/07 07:38:12;;;;;;;16.20;8.63;;;;;;;2.21;100.00;94813.38;5056513;28;20459;-84
2023/03/07 07:40:38;;;;;;;14.37;8.67;;;;;;;2.21;100.00;94815.97;5067244;28;20510;-84
2023/03/07 07:43:04;;;;;;;14.93;7.97;;;;;;;2.22;100.00;94804.66;5065673;28;20514;-84
2023/03/07 07:45:44;;;;;;;16.00;8.83;;;;;;;2.28;100.00;94805.84;5040190;28;20440;-84
2023/03/07 07:48:14;;;;;;;13.07;7.63;;;;;;;2.38;100.00;94805.81;5052343;28;20120;-84
2023/03/07 07:50:39;;;;;;;15.67;8.77;;;;;;;2.39;100.00;94805.69;5050441;28;20096;-84
2023/03/07 07:53:05;;;;;;;18.57;9.20;;;;;;;2.53;100.00;94812.97;5050230;28;20017;-84
2023/03/07 07:55:31;;;;;;;14.37;8.23;;;;;;;2.67;100.00;94811.66;5050433;28;20483;-84
2023/03/07 07:57:57;;;;;;;18.13;8.87;;;;;;;2.67;100.00;94809.06;5050097;28;20051;-84
2023/03/07 08:00:23;;;;;;;16.10;8.77;;;;;;;2.69;100.00;94806.34;5061642;28;20029;-84
2023/03/07 08:02:49;;;;;;;14.63;7.63;;;;;;;2.78;100.00;94802.84;5090317;28;20052;-84
2023/03/07 08:05:21;;;;;;;13.20;7.53;;;;;;;2.74;100.00;94804.09;5040832;28;20063;-84
2023/03/07 08:07:47;;;;;;;14.70;8.80;;;;;;;2.87;100.00;94807.16;5062426;28;20629;-84
2023/03/07 08:10:17;;;;;;;14.83;8.37;;;;;;;2.83;100.00;94806.63;5082955;28;20040;-84
2023/03/07 08:12:43;;;;;;;14.47;8.13;;;;;;;2.92;100.00;94801.50;5082739;28;20028;-84
2023/03/07 08:15:31;;;;;;;13.70;8.50;;;;;;;2.84;100.00;94802.25;5051114;28;20041;-84
2023/03/07 08:17:59;;;;;;;15.30;8.17;;;;;;;2.82;100.00;94797.22;5046490;28;20033;-84
2023/03/07 08:20:24;;;;;;;15.97;7.90;;;;;;;3.06;100.00;94799.25;5066547;28;20391;-84
2023/03/07 08:22:51;;;;;;;14.20;8.40;;;;;;;3.04;100.00;94802.94;5049612;28;20037;-84
2023/03/07 08:25:21;;;;;;;14.70;8.13;;;;;;;2.98;100.00;94803.53;5037401;28;20559;-84
2023/03/07 08:27:51;;;;;;;16.43;7.87;;;;;;;2.95;100.00;94799.47;5050528;28;20045;-84
2023/03/07 08:30:18;;;;;;;13.90;7.80;;;;;;;2.96;100.00;94795.91;5070166;28;20033;-84
2023/03/07 08:32:43;;;;;;;13.37;7.50;;;;;;;2.95;100.00;94794.28;5053369;28;20029;-84
2023/03/07 08:35:29;;;;;;;13.20;7.60;;;;;;;2.99;100.00;94806.00;5053545;28;20036;-84
2023/03/07 08:37:59;;;;;;;14.60;7.47;;;;;;;3.13;100.00;94799.47;5096845;28;20025;-84
2023/03/07 08:40:27;;;;;;;16.23;8.83;;;;;;;3.07;100.00;94802.66;5057305;28;20025;-84
2023/03/07 08:42:54;;;;;;;14.57;7.67;;;;;;;3.11;100.00;94800.56;5085930;28;20090;-84
2023/03/07 08:45:23;;;;;;;14.00;8.07;;;;;;;3.03;100.00;94796.94;5050013;28;20100;-84
2023/03/07 08:47:51;;;;;;;13.80;7.90;;;;;;;3.15;100.00;94796.69;5049021;28;20546;-84
2023/03/07 08:50:17;;;;;;;15.37;7.60;;;;;;;3.30;100.00;94787.44;5052547;28;20033;-84
2023/03/07 08:52:43;;;;;;;15.73;7.13;;;;;;;3.35;100.00;94781.75;5085876;28;20028;-83
2023/03/07 08:55:09;;;;;;;12.90;7.90;;;;;;;3.51;100.00;94787.91;5035993;28;20032;-83
2023/03/07 08:57:35;;;;;;;14.67;7.30;;;;;;;3.58;100.00;94776.91;5069209;28;20037;-84
2023/03/07 09:00:00;;;;;;;13.00;7.53;;;;;;;3.47;100.00;94783.97;5053262;28;20059;-84
2023/03/07 09:02:26;;;;;;;13.60;7.33;;;;;;;3.56;100.00;94781.47;5060271;28;20124;-84
2023/03/07 09:04:52;;;;;;;11.87;6.83;;;;;;;3.51;100.00;94780.09;5052193;28;20384;-85
2023/03/07 09:07:18;;;;;;;12.23;7.27;;;;;;;3.50;100.00;94783.69;5056460;28;20086;-84
2023/03/07 09:09:43;;;;;;;13.87;7.33;;;;;;;3.47;100.00;94767.56;5073329;28;20029;-84
2023/03/07 09:12:10;;;;;;;11.93;6.23;;;;;;;3.59;100.00;94781.97;5069306;28;20074;-84
2023/03/07 09:14:35;;;;;;;12.60;6.57;;;;;;;3.54;100.00;94774.59;5044666;28;20578;-84
2023/03/07 09:17:01;;;;;;;16.27;8.07;;;;;;;3.77;100.00;94771.50;5052466;28;20033;-84
2023/03/07 09:19:27;;;;;;;12.83;6.70;;;;;;;3.79;100.00;94772.19;5068898;28;20032;-84
2023/03/07 09:21:53;;;;;;;13.73;6.77;;;;;;;4.04;100.00;94767.91;5052465;28;20036;-84
2023/03/07 09:24:29;;;;;;;12.63;6.67;;;;;;;3.82;100.00;94758.84;5091090;28;20040;-85
2023/03/07 09:26:55;;;;;;;13.33;6.87;;;;;;;3.82;100.00;94760.63;5053604;28;20033;-84
2023/03/07 09:29:21;;;;;;;10.73;6.10;;;;;;;3.99;100.00;94759.75;5056316;28;20034;-84
2023/03/07 09:31:46;;;;;;;12.50;6.10;;;;;;;3.84;100.00;94759.53;5039183;28;20094;-84
2023/03/07 09:34:12;;;;;;;9.17;5.33;;;;;;;3.75;100.00;94750.03;5067889;28;20029;-84
2023/03/07 09:36:38;;;;;;;11.70;5.90;;;;;;;4.13;100.00;94753.19;5050592;28;20557;-84
2023/03/07 09:39:04;;;;;;;11.87;6.07;;;;;;;4.25;100.00;94741.50;5053585;28;20509;-84
2023/03/07 09:41:37;;;;;;;11.50;6.60;;;;;;;4.41;100.00;94738.94;5058625;28;20071;-85
2023/03/07 09:44:09;;;;;;;12.13;6.82;;;;;;;4.61;100.00;94736.91;5068124;28;20065;-84
2023/03/07 09:47:44;;;;;;;19.80;8.03;;;;;;;4.51;100.00;94730.19;5069787;28;20013;-84
2023/03/07 09:50:16;;;;;;;12.33;7.07;;;;;;;4.61;100.00;94728.28;5044528;28;20131;-84
2023/03/07 09:52:43;;;;;;;16.33;7.57;;;;;;;4.70;100.00;94725.53;5085102;28;20471;-84
2023/03/07 09:55:19;;;;;;;11.40;6.47;;;;;;;4.60;100.00;94718.84;5050882;28;20056;-84
2023/03/07 09:57:59;;;;;;;12.33;6.40;;;;;;;4.71;100.00;94721.13;5051013;28;20064;-84
2023/03/07 10:00:44;;;;;;;14.53;6.90;;;;;;;4.77;100.00;94719.69;5061317;28;20021;-84
2023/03/07 10:03:29;;;;;;;14.60;7.43;;;;;;;5.11;100.00;94715.13;5049778;28;20090;-83
2023/03/07 10:06:00;;;;;;;11.73;6.57;;;;;;;5.53;100.00;94708.09;5048313;28;20040;-84
2023/03/07 10:08:32;;;;;;;9.57;5.97;;;;;;;6.06;100.00;94698.84;5081318;28;20032;-83
2023/03/07 10:11:01;;;;;;;12.23;6.67;;;;;;;5.97;100.00;94708.53;5053098;28;20040;-84
2023/03/07 10:13:55;;;;;;;11.53;6.53;;;;;;;5.53;100.00;94700.28;5050993;28;20200;-84
2023/03/07 10:16:49;;;;;;;12.00;6.73;;;;;;;5.56;100.00;94705.16;5046374;28;20032;-84
2023/03/07 10:19:47;;;;;;;13.23;7.57;;;;;;;5.37;100.00;94696.72;5043255;28;20115;-84
2023/03/07 10:22:31;;;;;;;12.80;6.87;;;;;;;5.51;100.00;94704.84;5063869;28;20029;-85
2023/03/07 10:25:25;;;;;;;13.97;6.97;;;;;;;5.23;100.00;94691.34;5049568;28;20045;-84
2023/03/07 10:28:14;;;;;;;13.63;6.72;;;;;;;5.27;100.00;94701.28;5050211;28;20070;-84
2023/03/07 10:30:40;;;;;;;13.37;6.80;;;;;;;4.93;100.00;94704.06;5041920;28;20048;-84
2023/03/07 10:33:14;;;;;;;12.37;6.70;;;;;;;4.80;100.00;94691.53;5050420;28;20505;-84
2023/03/07 10:35:42;;;;;;;11.30;6.20;;;;;;;4.65;100.00;94700.94;5051119;28;20029;-85
2023/03/07 10:38:18;;;;;;;9.73;5.87;;;;;;;4.63;100.00;94698.50;5067223;28;20135;-85
2023/03/07 10:41:10;;;;;;;10.53;5.63;;;;;;;4.31;100.00;94690.63;5033603;28;20033;-84
2023/03/07 10:43:36;;;;;;;10.47;5.33;;;;;;;4.25;100.00;94694.66;5061815;28;20086;-84
2023/03/07 10:46:22;;;;;;;12.50;6.50;;;;;;;4.15;100.00;94693.97;5050596;28;20120;-84
2023/03/07 10:48:53;;;;;;;10.90;6.27;;;;;;;4.30;100.00;94691.59;5042392;28;20028;-84
2023/03/07 10:51:40;;;;;;;10.80;6.20;;;;;;;4.59;100.00;94691.16;5042426;28;20036;-84
2023/03/07 10:54:41;;;;;;;11.93;6.40;;;;;;;4.74;100.00;94686.97;5038600;28;20032;-84
2023/03/07 10:57:13;;;;;;;12.90;6.30;;;;;;;4.71;100.00;94684.66;5053139;28;20048;-85
2023/03/07 10:59:47;;;;;;;10.10;5.73;;;;;;;4.69;100.00;94673.59;5048782;28;20160;-84
2023/03/07 11:02:45;;;;;;;10.43;6.30;;;;;;;4.54;100.00;94670.00;5088947;28;20112;-84
2023/03/07 11:05:22;;;;;;;13.47;7.03;;;;;;;4.22;100.00;94663.75;5050163;28;20044;-84
2023/03/07 11:07:48;;;;;;;14.23;6.77;;;;;;;4.21;100.00;94667.34;5081268;28;20035;-84
2023/03/07 11:10:38;;;;;;;11.93;7.17;;;;;;;4.18;100.00;94665.03;5050342;28;20498;-84
2023/03/07 11:13:13;;;;;;;15.13;7.40;;;;;;;4.21;100.00;94662.13;5048601;28;20041;-84
2023/03/07 11:15:43;;;;;;;12.70;6.53;;;;;;;4.20;100.00;94665.72;5063339;28;20116;-83
2023/03/07 11:18:36;;;;;;;12.13;6.13;;;;;;;4.09;100.00;94663.38;5066519;28;20095;-84
2023/03/07 11:21:02;;;;;;;11.97;6.33;;;;;;;4.22;100.00;94656.75;5049846;28;20044;-84
2023/03/07 11:23:30;;;;;;;13.10;6.37;;;;;;;4.34;100.00;94648.66;5066523;28;20097;-83
2023/03/07 11:26:14;;;;;;;14.03;6.33;;;;;;;4.15;100.00;94647.97;5083683;28;20028;-85
2023/03/07 11:28:40;;;;;;;9.83;5.27;;;;;;;4.11;100.00;94651.84;5051642;28;20040;-84
2023/03/07 11:31:30;;;;;;;12.40;5.70;;;;;;;4.22;100.00;94654.16;5067033;28;20033;-85
2023/03/07 11:37:27;;;;;;;9.53;4.83;;;;;;;4.13;100.00;94649.91;5050639;28;20451;-85
2023/03/07 11:40:09;;;;;;;10.20;6.03;;;;;;;4.16;100.00;94651.41;5069198;28;20036;-92
2023/03/07 11:42:42;;;;;;;12.70;6.97;;;;;;;4.20;100.00;94652.69;5053796;28;20040;-92
2023/03/07 11:45:08;;;;;;;;;;;;;;;4.08;100.00;94654.78;5054428;28;20124;-92